createdAt,value
2022-08-12T00:00:32.061Z,19.91
2022-08-12T00:02:03.811Z,19.93
2022-08-12T00:02:40.881Z,19.64
2022-08-12T00:03:32.841Z,19.36
2022-08-12T00:04:26.670Z,19.06
2022-08-12T00:05:19.282Z,18.78
2022-08-12T00:06:11.032Z,18.51
2022-08-12T00:07:04.115Z,18.24
2022-08-12T00:08:00.424Z,18.03
2022-08-12T00:08:54.112Z,17.82
2022-08-12T00:09:46.420Z,17.68
2022-08-12T00:10:41.132Z,17.82
2022-08-12T00:11:33.872Z,18.15
2022-08-12T00:12:25.634Z,18.59
2022-08-12T00:13:17.377Z,18.98
2022-08-12T00:14:09.575Z,19.36
2022-08-12T00:15:02.926Z,19.69
2022-08-12T00:15:55.692Z,19.78
2022-08-12T00:16:48.693Z,19.62
2022-08-12T00:17:40.867Z,19.35
2022-08-12T00:18:33.639Z,19.05
2022-08-12T00:19:25.221Z,18.75
2022-08-12T00:20:16.971Z,18.47
2022-08-12T00:21:09.049Z,18.20
2022-08-12T00:22:01.349Z,17.97
2022-08-12T00:22:59.044Z,17.77
2022-08-12T00:23:51.261Z,17.62
2022-08-12T00:24:43.218Z,17.69
2022-08-12T00:25:55.816Z,17.95
2022-08-12T00:26:47.156Z,18.49
2022-08-12T00:27:43.971Z,18.91
2022-08-12T00:28:36.544Z,19.35
2022-08-12T00:29:29.175Z,19.65
2022-08-12T00:30:21.335Z,19.71
2022-08-12T00:31:13.563Z,19.54
2022-08-12T00:32:05.672Z,19.26
2022-08-12T00:32:58.133Z,18.94
2022-08-12T00:33:51.541Z,18.64
2022-08-12T00:34:44.474Z,18.31
2022-08-12T00:35:38.634Z,18.04
2022-08-12T00:36:36.208Z,17.80
2022-08-12T00:37:28.674Z,17.58
2022-08-12T00:38:21.828Z,17.40
2022-08-12T00:39:15.166Z,17.26
2022-08-12T00:40:11.003Z,17.38
2022-08-12T00:41:03.916Z,17.78
2022-08-12T00:41:57.201Z,18.27
2022-08-12T00:42:30.394Z,18.82
2022-08-12T00:43:07.443Z,19.12
2022-08-12T00:43:44.130Z,19.38
2022-08-12T00:44:21.500Z,19.49
2022-08-12T00:44:56.725Z,19.45
2022-08-12T00:45:53.359Z,19.31
2022-08-12T00:46:41.744Z,18.99
2022-08-12T00:47:25.428Z,18.69
2022-08-12T00:47:59.027Z,18.42
2022-08-12T00:48:32.583Z,18.20
2022-08-12T00:49:07.251Z,18.02
2022-08-12T00:49:42.267Z,17.83
2022-08-12T00:50:25.879Z,17.63
2022-08-12T00:51:02.087Z,17.47
2022-08-12T00:51:58.485Z,17.32
2022-08-12T00:52:33.521Z,17.20
2022-08-12T00:53:09.644Z,17.29
2022-08-12T00:53:42.848Z,17.52
2022-08-12T00:54:17.077Z,17.79
2022-08-12T00:54:57.335Z,18.08
2022-08-12T00:55:30.939Z,18.41
2022-08-12T00:56:06.702Z,18.68
2022-08-12T00:56:41.774Z,18.91
2022-08-12T00:57:18.836Z,19.05
2022-08-12T00:57:52.406Z,19.05
2022-08-12T00:58:31.502Z,18.95
2022-08-12T00:59:04.756Z,18.76
2022-08-12T00:59:44.640Z,18.57
2022-08-12T01:00:24.862Z,18.31
2022-08-12T01:01:04.481Z,18.06
2022-08-12T01:02:02.369Z,17.86
2022-08-12T01:02:42.299Z,17.57
2022-08-12T01:03:20.676Z,17.39
2022-08-12T01:04:15.889Z,17.24
2022-08-12T01:05:12.531Z,17.03
2022-08-12T01:06:07.383Z,16.88
2022-08-12T01:07:01.731Z,17.00
2022-08-12T01:07:56.623Z,17.41
2022-08-12T01:08:49.665Z,17.90
2022-08-12T01:09:41.989Z,18.42
2022-08-12T01:10:34.232Z,18.89
2022-08-12T01:11:25.982Z,19.25
2022-08-12T01:12:00.721Z,19.33
2022-08-12T01:12:35.863Z,19.23
2022-08-12T01:13:20.202Z,19.06
2022-08-12T01:13:54.520Z,18.79
2022-08-12T01:14:29.103Z,18.57
2022-08-12T01:15:05.020Z,18.31
2022-08-12T01:15:39.285Z,18.09
2022-08-12T01:16:15.801Z,17.88
2022-08-12T01:16:49.245Z,17.68
2022-08-12T01:17:25.501Z,17.50
2022-08-12T01:17:59.553Z,17.34
2022-08-12T01:18:40.063Z,17.18
2022-08-12T01:19:13.507Z,17.05
2022-08-12T01:19:50.895Z,16.92
2022-08-12T01:20:37.431Z,16.92
2022-08-12T01:21:29.322Z,17.11
2022-08-12T01:22:29.512Z,17.54
2022-08-12T01:23:15.615Z,18.12
2022-08-12T01:24:28.011Z,18.61
2022-08-12T01:25:03.813Z,19.09
2022-08-12T01:25:41.599Z,19.10
2022-08-12T01:26:32.475Z,18.97
2022-08-12T01:27:09.397Z,18.81
2022-08-12T01:27:43.473Z,18.61
2022-08-12T01:28:18.323Z,18.40
2022-08-12T01:28:59.932Z,18.17
2022-08-12T01:29:35.380Z,17.93
2022-08-12T01:30:11.439Z,17.75
2022-08-12T01:30:45.229Z,17.56
2022-08-12T01:31:20.231Z,17.40
2022-08-12T01:31:57.315Z,17.26
2022-08-12T01:32:37.288Z,17.23
2022-08-12T01:33:17.862Z,17.38
2022-08-12T01:34:33.381Z,17.66
2022-08-12T01:35:06.010Z,18.26
2022-08-12T01:35:45.215Z,18.64
2022-08-12T01:36:41.098Z,19.06
2022-08-12T01:37:20.577Z,19.33
2022-08-12T01:38:04.655Z,19.41
2022-08-12T01:38:38.840Z,19.32
2022-08-12T01:39:15.745Z,19.16
2022-08-12T01:40:35.055Z,18.95
2022-08-12T01:40:48.521Z,18.58
2022-08-12T01:41:24.071Z,18.33
2022-08-12T01:42:03.472Z,18.11
2022-08-12T01:42:48.671Z,17.89
2022-08-12T01:43:22.865Z,17.65
2022-08-12T01:44:00.813Z,17.49
2022-08-12T01:44:35.369Z,17.31
2022-08-12T01:45:10.332Z,17.17
2022-08-12T01:46:12.841Z,17.03
2022-08-12T01:47:20.663Z,16.79
2022-08-12T01:48:13.471Z,16.68
2022-08-12T01:49:08.308Z,16.94
2022-08-12T01:50:07.575Z,17.40
2022-08-12T01:51:10.317Z,17.95
2022-08-12T01:52:21.871Z,18.51
2022-08-12T01:52:56.889Z,18.88
2022-08-12T01:54:06.554Z,18.96
2022-08-12T01:54:44.704Z,18.71
2022-08-12T01:55:22.361Z,18.51
2022-08-12T01:55:56.864Z,18.27
2022-08-12T01:56:41.967Z,18.06
2022-08-12T01:57:58.986Z,17.80
2022-08-12T01:58:53.198Z,17.49
2022-08-12T01:59:50.298Z,17.17
2022-08-12T02:00:25.865Z,16.96
2022-08-12T02:01:12.473Z,16.84
2022-08-12T02:01:49.581Z,16.90
2022-08-12T02:02:32.347Z,17.13
2022-08-12T02:03:55.739Z,17.47
2022-08-12T02:05:22.785Z,18.11
2022-08-12T02:06:41.132Z,18.64
2022-08-12T02:07:49.053Z,18.91
2022-08-12T02:09:01.260Z,18.76
2022-08-12T02:10:50.058Z,18.38
2022-08-12T02:11:49.423Z,17.79
2022-08-12T02:12:34.891Z,17.45
2022-08-12T02:13:41.882Z,17.27
2022-08-12T02:14:46.102Z,16.98
2022-08-12T02:15:49.951Z,16.77
2022-08-12T02:16:54.646Z,16.63
2022-08-12T02:17:56.568Z,16.93
2022-08-12T02:19:03.638Z,17.43
2022-08-12T02:20:01.691Z,18.05
2022-08-12T02:20:52.207Z,18.32
2022-08-12T02:21:26.952Z,18.63
2022-08-12T02:22:09.123Z,18.76
2022-08-12T02:22:45.207Z,18.94
2022-08-12T02:23:19.573Z,19.00
2022-08-12T02:23:54.223Z,18.94
2022-08-12T02:24:31.567Z,18.79
2022-08-12T02:25:09.681Z,18.58
2022-08-12T02:25:45.865Z,18.32
2022-08-12T02:26:20.622Z,18.08
2022-08-12T02:26:54.731Z,17.86
2022-08-12T02:27:34.754Z,17.66
2022-08-12T02:28:08.325Z,17.43
2022-08-12T02:28:42.122Z,17.26
2022-08-12T02:29:16.355Z,17.10
2022-08-12T02:29:50.736Z,16.94
2022-08-12T02:30:33.167Z,16.81
2022-08-12T02:31:15.566Z,16.61
2022-08-12T02:31:50.137Z,16.51
2022-08-12T02:32:24.647Z,16.48
2022-08-12T02:33:00.843Z,16.56
2022-08-12T02:33:35.898Z,16.81
2022-08-12T02:34:10.091Z,17.10
2022-08-12T02:34:44.851Z,17.41
2022-08-12T02:35:21.404Z,17.68
2022-08-12T02:35:56.022Z,17.92
2022-08-12T02:36:32.035Z,18.14
2022-08-12T02:37:09.497Z,18.35
2022-08-12T02:37:44.372Z,18.53
2022-08-12T02:38:18.694Z,18.63
2022-08-12T02:38:54.441Z,18.62
2022-08-12T02:39:34.066Z,18.50
2022-08-12T02:40:09.543Z,18.28
2022-08-12T02:40:52.751Z,18.06
2022-08-12T02:41:28.258Z,17.81
2022-08-12T02:42:07.320Z,17.61
2022-08-12T02:43:23.771Z,17.39
2022-08-12T02:44:03.038Z,17.02
2022-08-12T02:44:40.616Z,16.89
2022-08-12T02:45:19.713Z,16.86
2022-08-12T02:45:57.743Z,17.02
2022-08-12T02:46:35.077Z,17.29
2022-08-12T02:47:58.692Z,17.61
2022-08-12T02:48:08.241Z,18.04
2022-08-12T02:48:46.119Z,18.34
2022-08-12T02:49:31.611Z,18.66
2022-08-12T02:50:06.329Z,18.94
2022-08-12T02:50:45.637Z,19.04
2022-08-12T02:51:24.550Z,19.00
2022-08-12T02:52:00.468Z,18.83
2022-08-12T02:52:34.761Z,18.64
2022-08-12T02:53:09.565Z,18.41
2022-08-12T02:53:45.441Z,18.17
2022-08-12T02:54:38.939Z,17.83
2022-08-12T02:55:28.814Z,17.63
2022-08-12T02:56:08.278Z,17.34
2022-08-12T02:56:50.525Z,17.19
2022-08-12T02:57:25.212Z,17.01
2022-08-12T02:57:59.777Z,16.88
2022-08-12T02:58:45.415Z,16.86
2022-08-12T02:59:23.139Z,17.03
2022-08-12T02:59:57.045Z,17.32
2022-08-12T03:00:31.599Z,17.65
2022-08-12T03:01:09.939Z,17.98
2022-08-12T03:01:50.009Z,18.33
2022-08-12T03:02:27.832Z,18.65
2022-08-12T03:03:06.166Z,18.89
2022-08-12T03:03:41.466Z,19.00
2022-08-12T03:04:24.735Z,18.96
2022-08-12T03:04:59.330Z,18.77
2022-08-12T03:05:38.499Z,18.57
2022-08-12T03:06:22.597Z,18.25
2022-08-12T03:07:02.692Z,17.99
2022-08-12T03:07:56.487Z,17.76
2022-08-12T03:08:43.633Z,17.45
2022-08-12T03:09:24.776Z,17.21
2022-08-12T03:10:15.858Z,17.05
2022-08-12T03:10:55.345Z,17.03
2022-08-12T03:11:42.691Z,17.21
2022-08-12T03:12:20.110Z,17.57
2022-08-12T03:12:57.978Z,17.93
2022-08-12T03:13:36.456Z,18.32
2022-08-12T03:14:15.329Z,18.69
2022-08-12T03:14:51.104Z,18.99
2022-08-12T03:15:24.995Z,19.23
2022-08-12T03:15:59.170Z,19.35
2022-08-12T03:16:33.567Z,19.33
2022-08-12T03:17:30.777Z,19.17
2022-08-12T03:18:27.022Z,18.85
2022-08-12T03:19:04.237Z,18.45
2022-08-12T03:20:10.071Z,18.20
2022-08-12T03:20:43.566Z,17.87
2022-08-12T03:21:55.697Z,17.63
2022-08-12T03:22:14.827Z,17.36
2022-08-12T03:22:50.076Z,17.21
2022-08-12T03:23:29.903Z,17.19
2022-08-12T03:24:05.177Z,17.34
2022-08-12T03:24:39.681Z,17.53
2022-08-12T03:25:17.316Z,17.81
2022-08-12T03:25:52.726Z,18.10
2022-08-12T03:26:30.401Z,18.37
2022-08-12T03:27:06.026Z,18.63
2022-08-12T03:27:49.789Z,18.86
2022-08-12T03:28:42.538Z,19.13
2022-08-12T03:29:18.035Z,19.33
2022-08-12T03:29:54.621Z,19.35
2022-08-12T03:30:34.282Z,19.24
2022-08-12T03:31:09.252Z,19.04
2022-08-12T03:31:44.354Z,18.81
2022-08-12T03:32:36.300Z,18.58
2022-08-12T03:33:12.751Z,18.20
2022-08-12T03:34:01.811Z,17.98
2022-08-12T03:34:37.581Z,17.71
2022-08-12T03:35:36.963Z,17.54
2022-08-12T03:36:09.336Z,17.47
2022-08-12T03:36:43.157Z,17.63
2022-08-12T03:37:20.850Z,17.86
2022-08-12T03:38:01.350Z,18.18
2022-08-12T03:38:37.691Z,18.55
2022-08-12T03:39:35.423Z,18.84
2022-08-12T03:40:30.968Z,19.21
2022-08-12T03:41:36.443Z,19.51
2022-08-12T03:42:18.308Z,19.72
2022-08-12T03:43:11.647Z,19.69
2022-08-12T03:44:47.023Z,19.46
2022-08-12T03:45:52.059Z,18.88
2022-08-12T03:46:52.592Z,18.47
2022-08-12T03:47:53.388Z,18.13
2022-08-12T03:48:45.563Z,17.89
2022-08-12T03:49:38.411Z,17.99
2022-08-12T03:50:31.169Z,18.33
2022-08-12T03:51:23.990Z,18.74
2022-08-12T03:52:18.258Z,19.09
2022-08-12T03:53:10.481Z,19.45
2022-08-12T03:54:04.406Z,19.76
2022-08-12T03:54:56.036Z,20.02
2022-08-12T03:55:48.001Z,20.21
2022-08-12T03:56:40.102Z,20.16
2022-08-12T03:57:31.839Z,19.91
2022-08-12T03:58:25.188Z,19.56
2022-08-12T03:59:19.373Z,19.20
2022-08-12T04:00:10.935Z,18.83
2022-08-12T04:00:56.926Z,18.44
2022-08-12T04:01:31.041Z,18.24
2022-08-12T04:02:04.378Z,18.14
2022-08-12T04:02:41.469Z,18.18
2022-08-12T04:03:33.577Z,18.36
2022-08-12T04:04:09.428Z,18.68
2022-08-12T04:04:45.744Z,18.91
2022-08-12T04:05:21.658Z,19.16
2022-08-12T04:05:56.885Z,19.38
2022-08-12T04:06:35.625Z,19.57
2022-08-12T04:07:10.438Z,19.76
2022-08-12T04:07:51.297Z,19.90
2022-08-12T04:08:32.356Z,20.04
2022-08-12T04:09:15.846Z,20.05
2022-08-12T04:09:50.179Z,19.91
2022-08-12T04:10:43.530Z,19.73
2022-08-12T04:11:36.153Z,19.38
2022-08-12T04:12:39.052Z,18.95
2022-08-12T04:13:19.937Z,18.63
2022-08-12T04:13:53.001Z,18.41
2022-08-12T04:14:28.275Z,18.32
2022-08-12T04:15:02.306Z,18.42
2022-08-12T04:15:35.552Z,18.63
2022-08-12T04:16:13.826Z,18.89
2022-08-12T04:16:49.526Z,19.18
2022-08-12T04:17:23.621Z,19.45
2022-08-12T04:18:06.994Z,19.68
2022-08-12T04:18:42.658Z,19.93
2022-08-12T04:19:17.568Z,20.08
2022-08-12T04:19:52.046Z,20.22
2022-08-12T04:20:25.379Z,20.28
2022-08-12T04:20:59.081Z,20.22
2022-08-12T04:21:33.537Z,20.07
2022-08-12T04:22:06.742Z,19.86
2022-08-12T04:22:40.922Z,19.63
2022-08-12T04:23:17.784Z,19.38
2022-08-12T04:23:52.211Z,19.13
2022-08-12T04:24:27.233Z,18.90
2022-08-12T04:25:02.216Z,18.70
2022-08-12T04:25:39.797Z,18.57
2022-08-12T04:26:12.876Z,18.62
2022-08-12T04:26:46.332Z,18.79
2022-08-12T04:27:21.488Z,19.03
2022-08-12T04:27:55.348Z,19.29
2022-08-12T04:28:29.340Z,19.54
2022-08-12T04:29:03.873Z,19.77
2022-08-12T04:30:17.243Z,19.99
2022-08-12T04:30:33.920Z,20.28
2022-08-12T04:31:06.976Z,20.44
2022-08-12T04:31:43.035Z,20.61
2022-08-12T04:32:16.191Z,20.75
2022-08-12T04:32:51.968Z,20.79
2022-08-12T04:33:27.206Z,20.70
2022-08-12T04:34:00.939Z,20.51
2022-08-12T04:34:34.168Z,20.28
2022-08-12T04:35:07.652Z,20.04
2022-08-12T04:35:41.087Z,19.79
2022-08-12T04:36:14.136Z,19.54
2022-08-12T04:36:47.311Z,19.31
2022-08-12T04:37:21.029Z,19.12
2022-08-12T04:38:00.429Z,19.02
2022-08-12T04:38:35.079Z,19.08
2022-08-12T04:39:11.042Z,19.26
2022-08-12T04:39:46.234Z,19.51
2022-08-12T04:40:28.003Z,19.78
2022-08-12T04:41:03.818Z,20.08
2022-08-12T04:41:38.892Z,20.31
2022-08-12T04:42:31.209Z,20.60
2022-08-12T04:43:05.121Z,20.79
2022-08-12T04:44:01.503Z,20.95
2022-08-12T04:44:32.965Z,21.00
2022-08-12T04:45:07.913Z,20.90
2022-08-12T04:45:41.167Z,20.72
2022-08-12T04:46:17.529Z,20.50
2022-08-12T04:46:54.879Z,20.23
2022-08-12T04:47:28.612Z,19.97
2022-08-12T04:48:04.428Z,19.74
2022-08-12T04:48:37.898Z,19.51
2022-08-12T04:49:11.096Z,19.33
2022-08-12T04:49:46.568Z,19.25
2022-08-12T04:50:35.408Z,19.33
2022-08-12T04:51:10.643Z,19.56
2022-08-12T04:51:44.441Z,19.77
2022-08-12T04:52:34.850Z,20.06
2022-08-12T04:53:09.320Z,20.31
2022-08-12T04:53:42.975Z,20.54
2022-08-12T04:54:17.225Z,20.74
2022-08-12T04:54:54.355Z,20.96
2022-08-12T04:55:28.603Z,21.11
2022-08-12T04:56:01.947Z,21.17
2022-08-12T04:56:35.839Z,21.12
2022-08-12T04:57:10.061Z,20.96
2022-08-12T04:57:43.484Z,20.72
2022-08-12T04:58:16.651Z,20.48
2022-08-12T04:59:05.280Z,20.12
2022-08-12T04:59:48.230Z,19.87
2022-08-12T05:00:22.695Z,19.59
2022-08-12T05:00:55.977Z,19.40
2022-08-12T05:01:31.425Z,19.32
2022-08-12T05:02:05.123Z,19.36
2022-08-12T05:02:43.304Z,19.53
2022-08-12T05:03:17.291Z,19.76
2022-08-12T05:03:52.176Z,20.02
2022-08-12T05:04:27.189Z,20.31
2022-08-12T05:05:03.323Z,20.59
2022-08-12T05:05:40.477Z,20.84
2022-08-12T05:06:20.819Z,21.05
2022-08-12T05:07:00.213Z,21.25
2022-08-12T05:07:34.381Z,21.27
2022-08-12T05:08:18.919Z,21.12
2022-08-12T05:08:57.657Z,20.92
2022-08-12T05:09:59.047Z,20.67
2022-08-12T05:10:34.039Z,20.27
2022-08-12T05:11:11.134Z,19.97
2022-08-12T05:11:53.787Z,19.74
2022-08-12T05:12:33.459Z,19.49
2022-08-12T05:13:16.670Z,19.41
2022-08-12T05:13:53.523Z,19.53
2022-08-12T05:14:26.651Z,19.73
2022-08-12T05:15:00.927Z,19.97
2022-08-12T05:15:35.966Z,20.24
2022-08-12T05:16:09.633Z,20.48
2022-08-12T05:16:42.960Z,20.71
2022-08-12T05:17:19.033Z,20.91
2022-08-12T05:17:53.043Z,21.08
2022-08-12T05:18:29.392Z,21.23
2022-08-12T05:19:03.260Z,21.37
2022-08-12T05:19:36.370Z,21.44
2022-08-12T05:20:15.851Z,21.40
2022-08-12T05:20:49.149Z,21.24
2022-08-12T05:21:22.423Z,21.04
2022-08-12T05:21:55.601Z,20.80
2022-08-12T05:22:29.095Z,20.56
2022-08-12T05:23:13.360Z,20.34
2022-08-12T05:23:46.796Z,20.04
2022-08-12T05:24:19.865Z,19.84
2022-08-12T05:24:53.266Z,19.67
2022-08-12T05:25:26.730Z,19.59
2022-08-12T05:26:01.352Z,19.67
2022-08-12T05:26:34.540Z,19.87
2022-08-12T05:27:07.828Z,20.09
2022-08-12T05:27:40.980Z,20.33
2022-08-12T05:28:31.387Z,20.65
2022-08-12T05:29:10.450Z,20.83
2022-08-12T05:30:07.906Z,21.05
2022-08-12T05:30:43.903Z,21.16
2022-08-12T05:31:47.540Z,21.24
2022-08-12T05:32:11.687Z,21.12
2022-08-12T05:32:44.781Z,20.94
2022-08-12T05:33:17.861Z,20.72
2022-08-12T05:33:51.167Z,20.47
2022-08-12T05:34:26.799Z,20.22
2022-08-12T05:35:07.130Z,19.95
2022-08-12T05:35:43.334Z,19.67
2022-08-12T05:36:17.737Z,19.45
2022-08-12T05:36:50.953Z,19.33
2022-08-12T05:37:24.156Z,19.36
2022-08-12T05:38:16.115Z,19.49
2022-08-12T05:38:58.223Z,19.76
2022-08-12T05:39:32.856Z,20.01
2022-08-12T05:40:10.842Z,20.19
2022-08-12T05:40:44.291Z,20.40
2022-08-12T05:41:20.894Z,20.55
2022-08-12T05:41:55.041Z,20.71
2022-08-12T05:42:32.495Z,20.84
2022-08-12T05:43:08.412Z,20.97
2022-08-12T05:43:41.667Z,21.08
2022-08-12T05:44:16.656Z,21.17
2022-08-12T05:44:50.034Z,21.24
2022-08-12T05:45:23.225Z,21.26
2022-08-12T05:45:56.514Z,21.15
2022-08-12T05:46:32.096Z,20.95
2022-08-12T05:47:05.384Z,20.70
2022-08-12T05:47:53.428Z,20.43
2022-08-12T05:48:27.927Z,20.04
2022-08-12T05:49:01.568Z,19.80
2022-08-12T05:49:35.203Z,19.57
2022-08-12T05:50:08.743Z,19.47
2022-08-12T05:50:43.059Z,19.52
2022-08-12T05:51:16.607Z,19.69
2022-08-12T05:51:49.952Z,19.91
2022-08-12T05:52:23.232Z,20.15
2022-08-12T05:52:56.499Z,20.40
2022-08-12T05:53:29.688Z,20.61
2022-08-12T05:54:03.341Z,20.79
2022-08-12T05:54:57.001Z,20.98
2022-08-12T05:55:31.982Z,21.22
2022-08-12T05:56:05.420Z,21.36
2022-08-12T05:56:40.998Z,21.48
2022-08-12T05:57:14.085Z,21.52
2022-08-12T05:57:58.980Z,21.43
2022-08-12T05:58:32.996Z,21.18
2022-08-12T05:59:08.018Z,20.96
2022-08-12T05:59:42.038Z,20.72
2022-08-12T06:00:17.567Z,20.49
2022-08-12T06:00:50.732Z,20.27
2022-08-12T06:02:08.880Z,20.08
2022-08-12T06:02:19.120Z,20.01
2022-08-12T06:03:01.439Z,20.16
2022-08-12T06:03:34.932Z,20.43
2022-08-12T06:04:09.641Z,20.67
2022-08-12T06:04:42.962Z,20.91
2022-08-12T06:05:16.199Z,21.11
2022-08-12T06:05:55.143Z,21.30
2022-08-12T06:06:29.797Z,21.48
2022-08-12T06:07:59.710Z,21.62
2022-08-12T06:08:02.359Z,21.77
2022-08-12T06:08:36.148Z,21.73
2022-08-12T06:09:11.703Z,21.61
2022-08-12T06:09:45.571Z,21.43
2022-08-12T06:10:32.578Z,21.23
2022-08-12T06:11:06.256Z,20.94
2022-08-12T06:12:05.186Z,20.75
2022-08-12T06:12:35.827Z,20.44
2022-08-12T06:13:09.617Z,20.29
2022-08-12T06:13:54.216Z,20.22
2022-08-12T06:14:28.303Z,20.33
2022-08-12T06:15:05.031Z,20.55
2022-08-12T06:15:38.244Z,20.83
2022-08-12T06:16:15.357Z,21.10
2022-08-12T06:16:49.030Z,21.40
2022-08-12T06:17:23.468Z,21.64
2022-08-12T06:18:11.619Z,21.87
2022-08-12T06:18:50.612Z,22.14
2022-08-12T06:19:25.392Z,22.30
2022-08-12T06:20:26.045Z,22.52
2022-08-12T06:21:03.092Z,22.63
2022-08-12T06:21:37.914Z,22.64
2022-08-12T06:22:12.828Z,22.54
2022-08-12T06:22:51.156Z,22.37
2022-08-12T06:23:30.158Z,22.13
2022-08-12T06:24:04.581Z,21.92
2022-08-12T06:24:38.609Z,21.69
2022-08-12T06:25:21.993Z,21.49
2022-08-12T06:25:56.587Z,21.25
2022-08-12T06:26:30.030Z,21.09
2022-08-12T06:27:03.641Z,21.02
2022-08-12T06:28:05.768Z,21.11
2022-08-12T06:28:39.860Z,21.53
2022-08-12T06:30:07.998Z,21.83
2022-08-12T06:30:27.633Z,22.32
2022-08-12T06:31:25.262Z,22.68
2022-08-12T06:31:59.931Z,22.94
2022-08-12T06:32:34.570Z,23.00
2022-08-12T06:33:22.602Z,22.93
2022-08-12T06:34:52.944Z,22.70
2022-08-12T06:35:25.702Z,22.38
2022-08-12T06:35:48.909Z,22.06
2022-08-12T06:36:23.903Z,21.85
2022-08-12T06:37:03.434Z,21.64
2022-08-12T06:37:41.962Z,21.48
2022-08-12T06:38:23.198Z,21.33
2022-08-12T06:38:56.393Z,21.37
2022-08-12T06:39:29.573Z,21.56
2022-08-12T06:40:04.007Z,21.83
2022-08-12T06:40:56.271Z,22.13
2022-08-12T06:42:25.272Z,22.55
2022-08-12T06:42:56.384Z,23.01
2022-08-12T06:43:30.023Z,23.23
2022-08-12T06:44:23.694Z,23.25
2022-08-12T06:44:57.062Z,23.14
2022-08-12T06:45:45.383Z,22.99
2022-08-12T06:46:22.397Z,22.70
2022-08-12T06:46:56.769Z,22.48
2022-08-12T06:47:37.061Z,22.26
2022-08-12T06:48:11.716Z,22.06
2022-08-12T06:48:45.139Z,21.88
2022-08-12T06:49:18.475Z,21.71
2022-08-12T06:49:52.765Z,21.57
2022-08-12T06:50:27.743Z,21.44
2022-08-12T06:51:05.233Z,21.44
2022-08-12T06:51:38.399Z,21.60
2022-08-12T06:52:11.892Z,21.88
2022-08-12T06:52:48.759Z,22.17
2022-08-12T06:53:23.887Z,22.47
2022-08-12T06:53:58.999Z,22.72
2022-08-12T06:54:33.549Z,22.92
2022-08-12T06:55:07.699Z,23.09
2022-08-12T06:55:57.549Z,23.23
2022-08-12T06:57:03.619Z,23.42
2022-08-12T06:58:05.578Z,23.57
2022-08-12T06:58:22.117Z,23.52
2022-08-12T06:58:56.131Z,23.40
2022-08-12T06:59:29.200Z,23.25
2022-08-12T07:00:02.360Z,23.07
2022-08-12T07:00:35.642Z,22.90
2022-08-12T07:01:08.879Z,22.72
2022-08-12T07:01:51.176Z,22.56
2022-08-12T07:02:26.170Z,22.36
2022-08-12T07:03:00.384Z,22.31
2022-08-12T07:03:53.828Z,22.48
2022-08-12T07:04:42.713Z,22.73
2022-08-12T07:05:17.189Z,23.14
2022-08-12T07:05:51.028Z,23.40
2022-08-12T07:06:25.672Z,23.64
2022-08-12T07:06:58.807Z,23.82
2022-08-12T07:07:32.121Z,23.85
2022-08-12T07:08:10.398Z,23.80
2022-08-12T07:08:44.545Z,23.64
2022-08-12T07:10:05.470Z,23.48
2022-08-12T07:10:12.896Z,23.19
2022-08-12T07:10:53.744Z,23.02
2022-08-12T07:11:32.405Z,22.83
2022-08-12T07:12:06.013Z,22.65
2022-08-12T07:12:39.277Z,22.52
2022-08-12T07:13:12.801Z,22.37
2022-08-12T07:14:02.515Z,22.23
2022-08-12T07:14:48.807Z,22.12
2022-08-12T07:15:24.863Z,22.25
2022-08-12T07:15:59.154Z,22.46
2022-08-12T07:16:52.082Z,22.71
2022-08-12T07:17:26.566Z,23.09
2022-08-12T07:18:20.820Z,23.33
2022-08-12T07:18:56.530Z,23.61
2022-08-12T07:19:44.985Z,23.65
2022-08-12T07:20:42.602Z,23.55
2022-08-12T07:21:12.767Z,23.30
2022-08-12T07:22:00.388Z,23.13
2022-08-12T07:22:36.020Z,22.87
2022-08-12T07:23:09.883Z,22.70
2022-08-12T07:23:47.100Z,22.52
2022-08-12T07:24:20.237Z,22.37
2022-08-12T07:25:13.255Z,22.24
2022-08-12T07:25:46.562Z,22.04
2022-08-12T07:26:22.219Z,21.95
2022-08-12T07:26:59.455Z,21.97
2022-08-12T07:27:40.956Z,22.13
2022-08-12T07:28:20.170Z,22.45
2022-08-12T07:28:53.475Z,22.80
2022-08-12T07:29:59.401Z,23.10
2022-08-12T07:30:19.601Z,23.51
2022-08-12T07:30:54.900Z,23.71
2022-08-12T07:31:28.207Z,23.85
2022-08-12T07:32:02.617Z,23.83
2022-08-12T07:32:36.087Z,23.69
2022-08-12T07:33:11.047Z,23.51
2022-08-12T07:33:44.565Z,23.27
2022-08-12T07:34:17.963Z,23.04
2022-08-12T07:34:51.352Z,22.80
2022-08-12T07:35:24.932Z,22.58
2022-08-12T07:36:02.666Z,22.35
2022-08-12T07:36:36.079Z,22.15
2022-08-12T07:37:10.005Z,22.11
2022-08-12T07:37:47.880Z,22.17
2022-08-12T07:38:29.632Z,22.33
2022-08-12T07:39:04.441Z,22.52
2022-08-12T07:39:50.737Z,22.69
2022-08-12T07:40:33.431Z,22.90
2022-08-12T07:41:08.274Z,23.03
2022-08-12T07:41:48.910Z,23.20
2022-08-12T07:42:22.126Z,23.25
2022-08-12T07:42:55.563Z,23.33
2022-08-12T07:43:31.228Z,23.40
2022-08-12T07:44:09.201Z,23.39
2022-08-12T07:44:44.148Z,23.27
2022-08-12T07:45:18.028Z,23.07
2022-08-12T07:45:54.401Z,22.83
2022-08-12T07:46:36.944Z,22.57
2022-08-12T07:47:12.750Z,22.27
2022-08-12T07:47:47.843Z,22.03
2022-08-12T07:48:22.697Z,21.82
2022-08-12T07:48:58.227Z,21.71
2022-08-12T07:49:31.713Z,21.76
2022-08-12T07:50:25.169Z,21.96
2022-08-12T07:50:58.834Z,22.15
2022-08-12T07:51:33.190Z,22.36
2022-08-12T07:52:06.444Z,22.57
2022-08-12T07:52:43.299Z,22.74
2022-08-12T07:53:17.519Z,22.87
2022-08-12T07:54:01.154Z,22.99
2022-08-12T07:54:37.672Z,23.13
2022-08-12T07:55:12.569Z,23.23
2022-08-12T07:55:46.326Z,23.33
2022-08-12T07:56:20.226Z,23.41
2022-08-12T07:56:53.552Z,23.42
2022-08-12T07:57:26.735Z,23.38
2022-08-12T07:58:00.940Z,23.24
2022-08-12T07:58:34.183Z,23.01
2022-08-12T07:59:10.961Z,22.77
2022-08-12T07:59:44.127Z,22.50
2022-08-12T08:00:18.748Z,22.23
2022-08-12T08:00:58.045Z,21.98
2022-08-12T08:01:33.171Z,21.74
2022-08-12T08:02:09.188Z,21.66
2022-08-12T08:02:42.796Z,21.71
2022-08-12T08:03:17.386Z,21.86
2022-08-12T08:04:16.472Z,22.05
2022-08-12T08:04:57.710Z,22.37
2022-08-12T08:05:53.695Z,22.56
2022-08-12T08:06:27.551Z,22.79
2022-08-12T08:07:02.133Z,22.93
2022-08-12T08:07:35.517Z,23.06
2022-08-12T08:08:17.399Z,23.17
2022-08-12T08:08:50.681Z,23.25
2022-08-12T08:09:24.910Z,23.32
2022-08-12T08:09:59.863Z,23.39
2022-08-12T08:10:34.199Z,23.47
2022-08-12T08:11:26.775Z,23.55
2022-08-12T08:12:19.711Z,23.66
2022-08-12T08:12:58.877Z,23.78
2022-08-12T08:13:33.254Z,23.87
2022-08-12T08:14:08.018Z,23.89
2022-08-12T08:14:41.202Z,23.82
2022-08-12T08:15:20.986Z,23.66
2022-08-12T08:16:04.345Z,23.43
2022-08-12T08:16:41.558Z,23.16
2022-08-12T08:17:15.689Z,22.92
2022-08-12T08:18:26.482Z,22.70
2022-08-12T08:19:03.342Z,22.28
2022-08-12T08:20:02.903Z,22.10
2022-08-12T08:20:42.528Z,22.04
2022-08-12T08:21:18.479Z,22.21
2022-08-12T08:21:56.325Z,22.43
2022-08-12T08:22:42.009Z,22.68
2022-08-12T08:23:46.532Z,22.94
2022-08-12T08:24:22.188Z,23.13
2022-08-12T08:24:59.952Z,23.22
2022-08-12T08:25:37.704Z,23.33
2022-08-12T08:26:11.051Z,23.44
2022-08-12T08:26:48.336Z,23.55
2022-08-12T08:27:22.581Z,23.64
2022-08-12T08:27:55.670Z,23.73
2022-08-12T08:28:29.534Z,23.81
2022-08-12T08:29:03.207Z,23.86
2022-08-12T08:29:37.725Z,23.80
2022-08-12T08:30:12.524Z,23.67
2022-08-12T08:30:50.591Z,23.47
2022-08-12T08:31:24.494Z,23.21
2022-08-12T08:32:01.741Z,23.00
2022-08-12T08:32:35.156Z,22.75
2022-08-12T08:33:22.775Z,22.54
2022-08-12T08:34:09.264Z,22.30
2022-08-12T08:34:54.160Z,22.28
2022-08-12T08:35:46.254Z,22.45
2022-08-12T08:36:24.009Z,22.77
2022-08-12T08:36:58.213Z,23.04
2022-08-12T08:37:33.474Z,23.28
2022-08-12T08:38:30.747Z,23.53
2022-08-12T08:39:11.601Z,23.82
2022-08-12T08:39:45.030Z,24.00
2022-08-12T08:40:38.166Z,24.05
2022-08-12T08:42:15.682Z,23.96
2022-08-12T08:42:40.801Z,23.57
2022-08-12T08:43:14.158Z,23.26
2022-08-12T08:43:47.393Z,23.06
2022-08-12T08:44:22.269Z,22.87
2022-08-12T08:44:58.450Z,22.68
2022-08-12T08:45:31.900Z,22.50
2022-08-12T08:46:06.324Z,22.44
2022-08-12T08:46:40.970Z,22.55
2022-08-12T08:47:14.412Z,22.73
2022-08-12T08:47:49.389Z,22.95
2022-08-12T08:48:24.320Z,23.17
2022-08-12T08:48:59.613Z,23.37
2022-08-12T08:49:34.310Z,23.55
2022-08-12T08:50:11.101Z,23.70
2022-08-12T08:50:45.721Z,23.81